Time;durP1;ratioP1;P1;durP2;ratioP2;P2;SDS_P1;SDS_P2;PMS_P1;PMS_P2;Temp;Humidity;BMP_temperature;BMP_pressure;BME280_temperature;BME280_humidity;BME280_pressure;Samples;Min_cycle;Max_cycle;Signal;HPM_P1;HPM_P2
2022/11/20 00:01:37;;;;;;;1.10;1.10;;;5.20;99.90;5.10;101060.00;;;;5035198;28;20195;-66
2022/11/20 00:04:03;;;;;;;1.50;1.50;;;5.20;99.90;5.80;101057.00;;;;5033754;28;20206;-66
2022/11/20 00:06:32;;;;;;;1.23;1.23;;;5.20;99.90;6.20;101067.00;;;;5034828;28;20539;-66
2022/11/20 00:09:02;;;;;;;1.10;1.10;;;5.30;99.90;5.40;101071.00;;;;5026646;28;20213;-66
2022/11/20 00:11:32;;;;;;;2.93;2.80;;;5.20;99.90;5.50;101064.00;;;;5035407;28;20199;-66
2022/11/20 00:14:03;;;;;;;1.20;1.20;;;5.00;99.90;5.40;101066.00;;;;5034047;28;20190;-66
2022/11/20 00:16:33;;;;;;;1.43;1.43;;;5.00;99.90;6.20;101069.00;;;;5036541;28;20648;-66
2022/11/20 00:19:02;;;;;;;6.03;5.57;;;5.20;99.90;5.80;101073.00;;;;5034920;28;20186;-67
2022/11/20 00:21:29;;;;;;;2.57;2.37;;;5.30;99.90;5.60;101072.00;;;;5033641;28;20192;-67
2022/11/20 00:23:58;;;;;;;1.30;1.30;;;5.20;99.90;6.30;101061.00;;;;5033747;28;20679;-66
2022/11/20 00:26:26;;;;;;;1.30;1.30;;;5.40;99.90;6.50;101069.00;;;;5034050;28;20188;-67
2022/11/20 00:28:55;;;;;;;1.30;1.30;;;5.50;99.90;5.90;101073.00;;;;5033509;28;20191;-66
2022/11/20 00:31:22;;;;;;;1.30;1.30;;;5.60;99.90;6.00;101056.00;;;;5033540;28;20242;-67
2022/11/20 00:33:48;;;;;;;1.87;1.87;;;5.40;99.90;6.60;101071.00;;;;5017152;28;20180;-67
2022/11/20 00:36:29;;;;;;;2.17;2.10;;;5.70;99.90;6.30;101066.00;;;;5035031;28;20656;-66
2022/11/20 00:38:57;;;;;;;2.37;2.17;;;5.80;99.90;5.10;101050.00;;;;5058898;28;20195;-67
2022/11/20 00:41:25;;;;;;;4.30;3.23;;;5.50;99.90;3.90;101040.00;;;;5035642;28;20188;-66
2022/11/20 00:43:55;;;;;;;1.80;1.77;;;4.70;99.90;3.70;101013.00;;;;5056501;28;20183;-66
2022/11/20 00:46:24;;;;;;;0.50;0.50;;;4.30;99.90;4.70;101031.00;;;;5016901;28;20193;-67
2022/11/20 00:48:56;;;;;;;1.30;1.30;;;4.40;99.90;5.20;101013.00;;;;5033616;28;20190;-66
2022/11/20 00:51:24;;;;;;;0.70;0.70;;;4.60;99.90;5.60;100996.00;;;;5031699;28;20219;-67
2022/11/20 00:53:51;;;;;;;0.70;0.70;;;4.80;99.90;5.00;101026.00;;;;5034657;28;20188;-66
2022/11/20 00:56:20;;;;;;;7.47;6.90;;;4.70;99.90;5.60;100974.00;;;;5032055;28;20195;-66
2022/11/20 00:58:48;;;;;;;0.90;0.90;;;4.90;99.90;5.80;101030.00;;;;5034382;28;20222;-67
2022/11/20 01:01:24;;;;;;;0.80;0.80;;;4.90;99.90;4.80;101033.00;;;;5033986;28;20191;-66
2022/11/20 01:03:52;;;;;;;2.03;1.97;;;4.80;99.90;5.60;101033.00;;;;5033509;28;20216;-66
2022/11/20 01:06:31;;;;;;;2.43;2.23;;;4.90;99.90;6.20;101039.00;;;;5034716;28;20210;-66
2022/11/20 01:09:02;;;;;;;2.60;2.50;;;5.10;99.90;5.90;101051.00;;;;5032827;28;20175;-66
2022/11/20 01:11:38;;;;;;;0.80;0.80;;;5.30;99.90;5.50;101045.00;;;;5016468;28;20537;-67
2022/11/20 01:14:09;;;;;;;1.10;1.10;;;5.20;99.90;6.20;101050.00;;;;5032959;28;20174;-67
2022/11/20 01:16:42;;;;;;;0.90;0.90;;;5.30;99.90;6.40;101050.00;;;;5034023;28;20191;-67
2022/11/20 01:19:15;;;;;;;1.00;1.00;;;5.50;99.90;5.80;101053.00;;;;5032981;28;20182;-67
2022/11/20 01:21:48;;;;;;;1.10;1.10;;;5.40;99.90;6.30;100987.00;;;;5013697;28;20199;-67
2022/11/20 01:24:17;;;;;;;1.00;1.00;;;5.40;99.90;5.80;101044.00;;;;5032510;28;20198;-67
2022/11/20 01:26:48;;;;;;;1.00;1.00;;;5.30;99.90;6.40;101057.00;;;;5032481;28;20179;-66
2022/11/20 01:29:21;;;;;;;1.10;1.10;;;5.50;99.90;6.40;101054.00;;;;5032739;28;20190;-67
2022/11/20 01:31:52;;;;;;;1.27;1.27;;;5.50;99.90;6.20;101057.00;;;;5032370;28;20213;-66
2022/11/20 01:34:21;;;;;;;2.10;2.10;;;5.50;99.90;6.00;101040.00;;;;5032216;28;20560;-67
2022/11/20 01:36:48;;;;;;;1.00;1.00;;;5.30;99.90;5.80;101012.00;;;;5032596;28;20238;-66
2022/11/20 01:39:22;;;;;;;1.10;1.10;;;5.30;99.90;5.70;101038.00;;;;5048845;28;20226;-67
2022/11/20 01:44:52;;;;;;;0.80;0.80;;;5.20;99.90;5.60;101045.00;;;;5033600;28;20207;-67
2022/11/20 01:47:39;;;;;;;0.80;0.80;;;5.10;99.90;5.30;101023.00;;;;5032260;28;20282;-67
2022/11/20 01:50:24;;;;;;;0.70;0.70;;;4.90;99.90;5.60;101025.00;;;;5032519;28;20221;-67
2022/11/20 01:52:59;;;;;;;0.80;0.80;;;4.90;99.90;5.50;101030.00;;;;5047298;28;20176;-66
2022/11/20 01:55:31;;;;;;;2.53;2.40;;;4.80;99.90;5.00;101024.00;;;;5032307;28;20217;-66
2022/11/20 01:57:58;;;;;;;0.70;0.70;;;4.70;99.90;5.00;101029.00;;;;5032151;28;20182;-66
2022/11/20 02:00:25;;;;;;;0.60;0.60;;;4.60;99.90;5.70;101022.00;;;;5032261;28;20187;-66
2022/11/20 02:02:59;;;;;;;0.60;0.60;;;4.80;99.90;5.10;101003.00;;;;5031161;28;20214;-66
2022/11/20 02:05:51;;;;;;;2.00;1.90;;;4.80;99.90;5.10;101028.00;;;;5031740;28;20229;-66
2022/11/20 02:08:19;;;;;;;0.70;0.70;;;4.70;99.90;5.10;101034.00;;;;5031812;28;20183;-66
2022/11/20 02:10:45;;;;;;;0.73;0.73;;;4.70;99.90;5.50;101026.00;;;;5031751;28;20213;-67
2022/11/20 02:15:55;;;;;;;0.87;0.87;;;4.80;99.90;5.30;101040.00;;;;5032207;28;20744;-67
2022/11/20 02:18:23;;;;;;;0.60;0.60;;;4.80;99.90;5.70;101026.00;;;;5031886;28;20548;-67
2022/11/20 02:20:54;;;;;;;3.97;3.83;;;5.00;99.90;5.30;101036.00;;;;5032093;28;20232;-67
2022/11/20 02:23:38;;;;;;;3.27;3.17;;;5.00;99.90;4.90;101027.00;;;;5028498;28;20208;-66
2022/11/20 02:26:13;;;;;;;1.10;1.10;;;4.90;99.90;4.80;100951.00;;;;5033134;28;20223;-67
2022/11/20 02:28:39;;;;;;;2.93;2.73;;;4.70;99.90;4.70;101015.00;;;;5017562;28;20196;-67
2022/11/20 02:31:05;;;;;;;0.97;0.97;;;4.60;99.90;5.40;100950.00;;;;5022115;28;20651;-67
2022/11/20 02:33:31;;;;;;;3.60;3.47;;;4.70;99.90;5.70;101017.00;;;;5032620;28;20274;-67
2022/11/20 02:35:56;;;;;;;1.17;1.17;;;4.90;99.90;5.10;101010.00;;;;5017658;28;20196;-67
2022/11/20 02:38:23;;;;;;;0.60;0.60;;;4.90;99.90;5.60;101011.00;;;;5031350;28;20275;-67
2022/11/20 02:40:52;;;;;;;1.47;1.47;;;5.00;99.90;6.00;101014.00;;;;5031580;28;20208;-67
2022/11/20 02:43:20;;;;;;;0.70;0.70;;;5.20;99.90;5.80;100999.00;;;;5013100;28;20214;-67
2022/11/20 02:45:46;;;;;;;1.13;1.13;;;5.10;99.90;5.30;101000.00;;;;5031650;28;20195;-67
2022/11/20 02:48:12;;;;;;;1.33;1.33;;;5.10;99.90;6.00;101001.00;;;;5032531;28;20179;-67
2022/11/20 02:50:43;;;;;;;1.97;1.87;;;5.20;99.90;5.20;100994.00;;;;5033007;28;20189;-67
2022/11/20 02:53:17;;;;;;;0.50;0.50;;;5.00;99.90;5.70;100996.00;;;;5030835;28;20194;-67
2022/11/20 02:55:46;;;;;;;7.77;3.60;;;5.20;99.90;5.70;101003.00;;;;5033244;28;20196;-67
2022/11/20 02:58:11;;;;;;;1.83;1.77;;;5.20;99.90;5.70;101001.00;;;;5031448;28;20553;-67
2022/11/20 03:00:37;;;;;;;4.13;3.53;;;5.20;99.90;5.60;100920.00;;;;5032852;28;20191;-67
2022/11/20 03:03:04;;;;;;;2.60;2.50;;;5.20;99.90;4.20;100939.00;;;;5032108;28;20285;-67
2022/11/20 03:05:35;;;;;;;2.57;2.27;;;4.60;99.90;4.70;100950.00;;;;5032599;28;20556;-67
2022/11/20 03:08:01;;;;;;;0.40;0.40;;;4.50;99.90;5.40;100924.00;;;;5015729;28;20734;-67
2022/11/20 03:10:33;;;;;;;4.63;1.10;;;4.80;99.90;4.80;100979.00;;;;5042541;28;20596;-67
2022/11/20 03:13:01;;;;;;;4.37;2.27;;;4.70;99.90;4.10;100969.00;;;;5031782;28;20226;-67
2022/11/20 03:15:30;;;;;;;3.30;1.00;;;4.40;99.90;4.30;100983.00;;;;5031396;28;20555;-67
2022/11/20 03:17:56;;;;;;;0.50;0.50;;;4.30;99.90;4.50;100973.00;;;;5031125;28;20233;-67
2022/11/20 03:20:22;;;;;;;11.90;10.93;;;4.30;99.90;5.00;100965.00;;;;5034853;28;20197;-67
2022/11/20 03:22:53;;;;;;;0.77;0.77;;;4.70;99.90;4.60;100961.00;;;;5036104;28;20659;-67
2022/11/20 03:25:24;;;;;;;0.40;0.40;;;4.50;99.90;4.70;100957.00;;;;5033831;28;20271;-67
2022/11/20 03:27:50;;;;;;;0.50;0.50;;;4.50;99.90;4.80;100953.00;;;;5034916;28;20642;-67
2022/11/20 03:30:19;;;;;;;0.83;0.83;;;4.50;99.90;5.10;100956.00;;;;5035740;28;20281;-67
2022/11/20 03:32:45;;;;;;;0.93;0.93;;;4.50;99.90;5.10;100956.00;;;;5034813;28;20660;-67
2022/11/20 03:35:17;;;;;;;0.70;0.70;;;4.60;99.90;4.20;100948.00;;;;5034370;28;20612;-67
2022/11/20 03:37:43;;;;;;;0.83;0.83;;;4.40;99.90;4.30;100890.00;;;;5034758;28;20270;-67
2022/11/20 03:40:15;;;;;;;0.50;0.50;;;4.30;99.90;4.30;100947.00;;;;5034638;28;20274;-67
2022/11/20 03:42:47;;;;;;;1.13;1.13;;;4.20;99.90;4.60;100929.00;;;;5019733;28;20309;-66
2022/11/20 03:45:18;;;;;;;0.50;0.50;;;4.30;99.90;4.60;100925.00;;;;5025864;28;20182;-67
2022/11/20 03:47:45;;;;;;;2.13;2.10;;;4.30;99.90;5.10;100935.00;;;;5034587;28;20184;-67
2022/11/20 03:50:13;;;;;;;0.60;0.60;;;4.50;99.90;4.90;100934.00;;;;5034035;28;20233;-67
2022/11/20 03:52:40;;;;;;;0.60;0.60;;;4.50;99.90;4.80;100918.00;;;;5034795;28;20187;-67
2022/11/20 03:55:07;;;;;;;0.60;0.60;;;4.40;99.90;4.80;100932.00;;;;5034284;28;20186;-67
2022/11/20 03:57:33;;;;;;;0.60;0.60;;;4.40;99.90;4.90;100912.00;;;;5034473;28;20183;-67
2022/11/20 03:59:59;;;;;;;1.63;1.53;;;4.40;99.90;4.70;100928.00;;;;5034244;28;20233;-67
2022/11/20 04:02:27;;;;;;;0.60;0.60;;;4.40;99.90;5.20;100923.00;;;;5046184;28;20584;-67
2022/11/20 04:04:56;;;;;;;1.43;1.43;;;4.50;99.90;5.50;100845.00;;;;5035430;28;20233;-67
2022/11/20 04:07:22;;;;;;;0.70;0.70;;;4.80;99.90;5.30;100906.00;;;;5035705;28;20183;-67
2022/11/20 04:09:53;;;;;;;0.70;0.70;;;4.80;99.90;5.00;100903.00;;;;5034104;28;20251;-67
2022/11/20 04:12:22;;;;;;;0.70;0.70;;;4.60;99.90;4.90;100890.00;;;;5035373;28;20186;-67
2022/11/20 04:14:48;;;;;;;1.73;1.63;;;4.50;99.90;4.80;100894.00;;;;5031282;28;20193;-67
2022/11/20 04:17:13;;;;;;;0.80;0.80;;;4.40;99.90;4.80;100907.00;;;;5034026;28;20191;-67
2022/11/20 04:19:39;;;;;;;0.80;0.80;;;4.30;99.90;4.70;100894.00;;;;5033764;28;20742;-67
2022/11/20 04:22:08;;;;;;;1.70;1.60;;;4.20;99.90;3.90;100899.00;;;;5034749;28;20282;-66
2022/11/20 04:24:34;;;;;;;0.70;0.70;;;4.10;99.90;4.30;100901.00;;;;5033938;28;20188;-67
2022/11/20 04:27:00;;;;;;;0.73;0.73;;;4.00;99.90;4.60;100834.00;;;;5034953;28;20186;-67
2022/11/20 04:29:26;;;;;;;0.77;0.77;;;4.00;99.90;4.70;100905.00;;;;5034783;28;20661;-66
2022/11/20 04:31:54;;;;;;;1.13;1.13;;;4.20;99.90;4.50;100894.00;;;;5030833;28;20573;-66
2022/11/20 04:34:20;;;;;;;0.70;0.70;;;4.10;99.90;4.50;100909.00;;;;5033404;28;20209;-66
2022/11/20 04:36:48;;;;;;;0.70;0.70;;;4.00;99.90;4.60;100831.00;;;;5034676;28;20230;-66
2022/11/20 04:39:15;;;;;;;0.80;0.80;;;4.00;99.90;4.70;100854.00;;;;5033703;28;20183;-66
2022/11/20 04:41:41;;;;;;;0.70;0.70;;;4.20;99.90;4.50;100902.00;;;;5033378;28;20206;-66
2022/11/20 04:44:07;;;;;;;0.70;0.70;;;4.10;99.90;4.40;100906.00;;;;5029502;28;20191;-66
2022/11/20 04:46:40;;;;;;;0.70;0.70;;;4.10;99.90;4.80;100906.00;;;;5034607;28;20192;-66
2022/11/20 04:49:06;;;;;;;0.80;0.80;;;4.10;99.90;4.90;100914.00;;;;5033252;28;20187;-66
2022/11/20 04:51:33;;;;;;;0.83;0.83;;;4.20;99.90;4.40;100910.00;;;;5033658;28;20219;-66
2022/11/20 04:54:04;;;;;;;0.80;0.80;;;4.20;99.90;4.60;100893.00;;;;5033366;28;20183;-67
2022/11/20 04:56:30;;;;;;;0.80;0.80;;;4.20;99.90;5.00;100895.00;;;;5033116;28;20207;-67
2022/11/20 04:59:00;;;;;;;0.73;0.73;;;4.40;99.90;5.10;100913.00;;;;5033360;28;20229;-67
2022/11/20 05:01:29;;;;;;;0.90;0.90;;;4.50;99.90;5.50;100901.00;;;;5032999;28;20213;-67
2022/11/20 05:03:55;;;;;;;0.80;0.80;;;4.70;99.90;5.30;100918.00;;;;5018589;28;20201;-67
2022/11/20 05:06:30;;;;;;;2.87;2.77;;;4.80;99.90;5.10;100910.00;;;;5032992;28;20186;-67
2022/11/20 05:08:58;;;;;;;2.27;2.07;;;4.70;99.90;5.50;100893.00;;;;5032937;28;20194;-67
2022/11/20 05:11:24;;;;;;;1.63;1.63;;;4.80;99.90;5.40;100904.00;;;;5034093;28;20536;-67
2022/11/20 05:13:51;;;;;;;0.80;0.80;;;4.80;99.90;5.70;100888.00;;;;5034246;28;20574;-66
2022/11/20 05:16:23;;;;;;;1.37;1.37;;;4.90;99.90;5.40;100900.00;;;;5032980;28;20191;-67
2022/11/20 05:18:50;;;;;;;1.30;1.30;;;5.00;99.90;5.50;100886.00;;;;5031830;28;20492;-66
2022/11/20 05:21:16;;;;;;;2.10;1.80;;;4.90;99.90;4.50;100873.00;;;;5032621;28;20191;-66
2022/11/20 05:23:43;;;;;;;2.07;1.97;;;4.70;99.90;3.90;100834.00;;;;5034142;28;20195;-66
2022/11/20 05:26:23;;;;;;;2.93;2.20;;;4.30;99.90;4.10;100883.00;;;;5032626;28;20183;-66
2022/11/20 05:28:57;;;;;;;1.07;1.07;;;4.10;99.90;4.50;100869.00;;;;5026040;28;20230;-67
2022/11/20 05:31:25;;;;;;;0.80;0.80;;;4.30;99.90;4.80;100868.00;;;;5032206;28;20235;-67
2022/11/20 05:33:59;;;;;;;4.20;4.00;;;4.30;99.90;5.10;100876.00;;;;5032911;28;20183;-67
2022/11/20 05:36:28;;;;;;;5.27;3.70;;;4.40;99.90;4.80;100865.00;;;;5033686;28;20187;-66
2022/11/20 05:38:54;;;;;;;1.23;1.23;;;4.40;99.90;5.00;100855.00;;;;5034002;28;20249;-67
2022/11/20 05:41:20;;;;;;;1.63;1.63;;;4.50;99.90;4.50;100814.00;;;;5031717;28;20647;-66
2022/11/20 05:43:52;;;;;;;0.93;0.93;;;4.40;99.90;4.60;100845.00;;;;5032646;28;20634;-67
2022/11/20 05:46:20;;;;;;;2.50;2.40;;;4.40;99.90;5.00;100844.00;;;;5031922;28;20183;-67
2022/11/20 05:48:49;;;;;;;1.73;1.70;;;4.60;99.90;4.80;100844.00;;;;5032256;28;20193;-67
2022/11/20 05:51:22;;;;;;;0.93;0.93;;;4.60;99.90;4.80;100856.00;;;;5040700;28;20201;-67
2022/11/20 05:53:56;;;;;;;0.83;0.83;;;4.40;99.90;4.60;100871.00;;;;5032569;28;20197;-66
2022/11/20 05:56:22;;;;;;;0.60;0.60;;;4.40;99.90;4.20;100875.00;;;;5022469;28;20191;-66
2022/11/20 05:58:49;;;;;;;3.63;3.17;;;4.20;99.90;4.60;100878.00;;;;5016243;28;20184;-66
2022/11/20 06:01:21;;;;;;;3.90;2.17;;;4.20;99.90;5.00;100862.00;;;;5020736;28;20293;-66
2022/11/20 06:03:49;;;;;;;0.90;0.90;;;4.50;99.90;5.40;100857.00;;;;5031713;28;20184;-66
2022/11/20 06:06:19;;;;;;;0.73;0.73;;;4.70;99.90;4.80;100850.00;;;;5033482;28;20654;-66
2022/11/20 06:08:45;;;;;;;1.93;1.83;;;4.70;99.90;4.70;100867.00;;;;5012531;28;20199;-66
2022/11/20 06:11:13;;;;;;;2.70;2.50;;;4.50;99.90;4.90;100857.00;;;;5065002;28;20278;-66
2022/11/20 06:13:40;;;;;;;0.60;0.60;;;4.50;99.90;4.70;100855.00;;;;5015910;28;20635;-66
2022/11/20 06:16:06;;;;;;;2.00;1.97;;;4.40;99.90;4.90;100859.00;;;;5023470;28;20280;-66
2022/11/20 06:18:38;;;;;;;1.27;1.17;;;4.50;99.90;4.70;100846.00;;;;5031454;28;20197;-66
2022/11/20 06:21:11;;;;;;;1.80;1.67;;;4.50;99.90;4.70;100863.00;;;;5031962;28;20192;-67
2022/11/20 06:23:43;;;;;;;0.90;0.90;;;4.50;99.90;4.70;100859.00;;;;5031585;28;20186;-67
2022/11/20 06:26:22;;;;;;;1.00;1.00;;;4.50;99.90;4.60;100851.00;;;;5031943;28;20536;-67
2022/11/20 06:28:49;;;;;;;1.23;1.13;;;4.50;99.90;4.30;100863.00;;;;5018976;28;20278;-67
2022/11/20 06:31:19;;;;;;;10.80;2.60;;;4.40;99.90;4.30;100869.00;;;;5030984;28;20199;-67
2022/11/20 06:33:45;;;;;;;0.80;0.80;;;4.30;99.90;4.30;100873.00;;;;5032726;28;20191;-67
2022/11/20 06:36:16;;;;;;;0.93;0.93;;;4.30;99.90;4.40;100863.00;;;;5032866;28;20594;-66
2022/11/20 06:38:46;;;;;;;1.83;1.73;;;4.30;99.90;4.50;100851.00;;;;5031820;28;20196;-66
2022/11/20 06:41:20;;;;;;;11.43;6.83;;;4.40;99.90;4.90;100854.00;;;;5031747;28;20196;-66
2022/11/20 06:43:49;;;;;;;0.87;0.87;;;4.50;99.90;4.90;100853.00;;;;5015434;28;20262;-67
2022/11/20 06:46:20;;;;;;;0.70;0.70;;;4.60;99.90;5.10;100853.00;;;;5031659;28;20224;-66
2022/11/20 06:48:47;;;;;;;1.50;1.43;;;4.70;99.90;5.20;100844.00;;;;5015206;28;20250;-67
2022/11/20 06:51:17;;;;;;;2.30;2.10;;;4.80;99.90;4.90;100857.00;;;;5032742;28;20182;-66
2022/11/20 06:53:45;;;;;;;2.40;2.30;;;4.90;99.90;4.70;100862.00;;;;5033074;28;20185;-66
2022/11/20 06:56:14;;;;;;;0.60;0.60;;;4.70;99.90;4.80;100850.00;;;;5035476;28;20713;-66
2022/11/20 06:58:43;;;;;;;0.70;0.70;;;4.70;99.90;4.80;100861.00;;;;5017136;28;20188;-66
2022/11/20 07:01:14;;;;;;;0.57;0.57;;;4.70;99.90;5.00;100855.00;;;;5026542;28;20184;-66
2022/11/20 07:03:41;;;;;;;0.93;0.93;;;4.80;99.90;5.00;100830.00;;;;5035363;28;20188;-66
2022/11/20 07:06:07;;;;;;;0.50;0.50;;;4.80;99.90;4.90;100844.00;;;;5035997;28;20238;-67
2022/11/20 07:08:34;;;;;;;2.33;2.00;;;4.90;99.90;5.20;100836.00;;;;5035497;28;20264;-66
2022/11/20 07:11:04;;;;;;;2.63;2.53;;;4.90;99.90;5.30;100848.00;;;;5035364;28;20317;-66
2022/11/20 07:13:30;;;;;;;4.07;2.53;;;5.10;99.90;5.40;100847.00;;;;5022096;28;20196;-66
2022/11/20 07:16:05;;;;;;;2.07;1.73;;;5.10;99.90;5.10;100831.00;;;;5025361;28;20187;-66
2022/11/20 07:18:37;;;;;;;0.50;0.50;;;5.10;99.90;5.50;100844.00;;;;5033500;28;20187;-67
2022/11/20 07:21:06;;;;;;;1.80;1.70;;;5.10;99.90;5.30;100839.00;;;;5036214;28;20195;-66
2022/11/20 07:23:32;;;;;;;2.03;1.93;;;5.20;99.90;5.50;100846.00;;;;5051250;28;20221;-66
2022/11/20 07:26:02;;;;;;;0.60;0.60;;;5.20;99.90;5.60;100854.00;;;;5034995;28;20188;-67
2022/11/20 07:28:28;;;;;;;2.63;2.43;;;5.20;99.90;6.00;100851.00;;;;5034839;28;20232;-66
2022/11/20 07:30:54;;;;;;;2.40;2.20;;;5.40;99.90;6.00;100834.00;;;;5036192;28;20275;-67
2022/11/20 07:33:20;;;;;;;3.30;3.10;;;5.60;99.90;6.10;100794.00;;;;5034842;28;20553;-66
2022/11/20 07:35:46;;;;;;;1.93;1.83;;;5.60;99.90;5.80;100834.00;;;;5036378;28;20192;-67
2022/11/20 07:38:15;;;;;;;1.30;1.20;;;5.50;99.90;6.00;100839.00;;;;5034975;28;20182;-66
2022/11/20 07:40:41;;;;;;;4.53;2.90;;;5.50;99.90;5.60;100756.00;;;;5034631;28;20216;-67
2022/11/20 07:43:07;;;;;;;3.73;3.63;;;5.40;99.90;5.50;100827.00;;;;5034329;28;20620;-67
2022/11/20 07:45:33;;;;;;;0.60;0.60;;;5.40;99.90;5.50;100817.00;;;;5035888;28;20191;-67
2022/11/20 07:47:59;;;;;;;2.67;2.50;;;5.30;99.90;5.30;100790.00;;;;5034503;28;20320;-67
2022/11/20 07:50:24;;;;;;;3.60;3.17;;;5.20;99.90;5.80;100835.00;;;;5035544;28;20218;-67
2022/11/20 07:52:50;;;;;;;3.70;3.50;;;5.50;99.90;5.40;100836.00;;;;5035266;28;20191;-67
2022/11/20 07:55:19;;;;;;;2.43;2.33;;;5.40;99.90;5.90;100832.00;;;;5034301;28;20186;-67
2022/11/20 07:57:45;;;;;;;2.90;2.60;;;5.50;99.90;6.20;100810.00;;;;5035662;28;20189;-67
2022/11/20 08:00:12;;;;;;;2.20;1.33;;;5.60;99.90;6.10;100804.00;;;;5034491;28;20328;-67
2022/11/20 08:02:40;;;;;;;1.73;1.63;;;5.70;99.90;6.30;100792.00;;;;5033944;28;20590;-67
2022/11/20 08:05:08;;;;;;;3.70;2.87;;;5.80;99.90;5.90;100817.00;;;;5033956;28;20183;-66
2022/11/20 08:07:43;;;;;;;1.70;1.63;;;5.70;99.90;6.00;100811.00;;;;5035452;28;20267;-66
2022/11/20 08:10:12;;;;;;;3.27;2.30;;;5.70;99.90;5.70;100812.00;;;;5034213;28;20256;-67
2022/11/20 08:15:34;;;;;;;6.23;5.47;;;5.70;99.90;5.80;100813.00;;;;5034447;28;20203;-67
2022/11/20 08:18:15;;;;;;;3.60;1.23;;;5.60;99.90;5.60;100755.00;;;;5034173;28;20185;-66
2022/11/20 08:20:41;;;;;;;0.93;0.93;;;5.60;99.90;6.00;100803.00;;;;5033792;28;20185;-67
2022/11/20 08:23:34;;;;;;;0.53;0.53;;;5.70;99.90;6.00;100738.00;;;;5034077;28;20217;-67
2022/11/20 08:26:06;;;;;;;5.20;4.67;;;5.70;99.90;6.00;100797.00;;;;5029736;28;20206;-67
2022/11/20 08:28:41;;;;;;;0.67;0.67;;;5.80;99.90;6.20;100797.00;;;;5031251;28;20782;-66
2022/11/20 08:31:30;;;;;;;4.93;4.53;;;5.90;99.90;6.10;100800.00;;;;5033609;28;20590;-66
2022/11/20 08:33:56;;;;;;;9.23;4.10;;;6.00;99.90;6.50;100729.00;;;;5028511;28;20209;-66
2022/11/20 08:36:24;;;;;;;3.77;3.53;;;6.20;99.90;6.00;100798.00;;;;5033694;28;20182;-66
2022/11/20 08:38:52;;;;;;;6.63;4.97;;;5.90;99.90;6.20;100767.00;;;;5017365;28;20272;-66
2022/11/20 08:41:25;;;;;;;4.47;4.27;;;6.00;99.90;6.00;100782.00;;;;5033157;28;20540;-66
2022/11/20 08:43:53;;;;;;;7.57;5.37;;;6.00;99.90;6.00;100711.00;;;;5033992;28;20201;-66
2022/11/20 08:46:19;;;;;;;4.37;4.03;;;5.90;99.90;6.20;100767.00;;;;5034422;28;20553;-66
2022/11/20 08:48:45;;;;;;;1.30;1.20;;;6.00;99.90;6.40;100711.00;;;;5033423;28;20190;-66
2022/11/20 08:51:12;;;;;;;1.80;1.53;;;6.10;99.90;6.80;100731.00;;;;5028461;28;20175;-66
2022/11/20 08:53:39;;;;;;;18.37;5.57;;;6.40;99.90;6.50;100764.00;;;;5016660;28;20266;-66
2022/11/20 08:56:05;;;;;;;4.10;3.70;;;6.30;99.90;6.20;100772.00;;;;5040870;28;20574;-66
2022/11/20 08:58:32;;;;;;;2.40;2.20;;;6.20;99.90;6.40;100772.00;;;;5033549;28;20194;-66
2022/11/20 09:01:01;;;;;;;2.47;2.37;;;6.10;99.90;6.70;100707.00;;;;5033109;28;20182;-66
2022/11/20 09:03:29;;;;;;;8.33;3.30;;;6.20;99.90;6.50;100772.00;;;;5034241;28;20230;-66
2022/11/20 09:06:06;;;;;;;1.27;1.27;;;6.20;99.90;6.10;100767.00;;;;5048350;28;20205;-66
2022/11/20 09:08:45;;;;;;;2.60;2.40;;;6.20;99.90;6.20;100759.00;;;;5017122;28;20212;-66
2022/11/20 09:11:19;;;;;;;4.07;3.60;;;6.10;99.90;6.30;100770.00;;;;5034273;28;20190;-74
2022/11/20 09:13:45;;;;;;;1.87;1.60;;;6.10;99.90;6.50;100712.00;;;;5016726;28;20285;-66
2022/11/20 09:16:12;;;;;;;2.43;2.33;;;6.20;99.90;6.50;100763.00;;;;5033118;28;20268;-78
2022/11/20 09:19:15;;;;;;;3.20;2.00;;;6.20;99.90;6.50;100770.00;;;;5027629;28;20188;-67
2022/11/20 09:22:39;;;;;;;1.40;1.30;;;6.20;99.90;6.10;100761.00;;;;5011424;28;20222;-67
2022/11/20 09:25:48;;;;;;;3.63;3.33;;;6.30;99.90;6.60;100750.00;;;;5019927;28;20201;-67
2022/11/20 09:29:12;;;;;;;4.23;3.93;;;6.30;99.90;6.10;100723.00;;;;5031635;28;20234;-67
2022/11/20 09:32:14;;;;;;;7.20;4.33;;;6.30;99.90;6.40;100730.00;;;;5028739;28;20207;-67
2022/11/20 09:34:58;;;;;;;1.17;1.17;;;6.30;99.90;6.60;100739.00;;;;5042381;28;20193;-67
2022/11/20 09:37:47;;;;;;;0.50;0.50;;;6.40;99.90;6.50;100723.00;;;;5064661;28;20492;-67
2022/11/20 09:41:06;;;;;;;2.47;2.30;;;6.30;99.90;6.50;100734.00;;;;5032547;28;20656;-67
2022/11/20 09:44:01;;;;;;;1.20;1.13;;;6.30;99.90;6.40;100745.00;;;;5027375;28;20255;-67
2022/11/20 09:46:53;;;;;;;1.60;1.53;;;6.20;99.90;6.30;100741.00;;;;5023343;28;20208;-67
2022/11/20 09:49:46;;;;;;;1.47;1.47;;;6.30;99.90;6.90;100665.00;;;;5014837;28;20272;-67
2022/11/20 09:53:14;;;;;;;6.13;5.40;;;6.40;99.90;6.70;100721.00;;;;5028620;28;20205;-67
2022/11/20 09:55:43;;;;;;;5.67;4.00;;;6.50;99.90;6.70;100696.00;;;;5028848;28;20200;-67
2022/11/20 09:58:53;;;;;;;2.63;1.07;;;6.60;99.90;6.90;100718.00;;;;5032352;28;20279;-67
2022/11/20 10:01:55;;;;;;;5.13;2.73;;;6.40;99.90;6.50;100655.00;;;;5031832;28;20226;-67
2022/11/20 10:04:49;;;;;;;1.57;1.47;;;6.40;99.90;7.00;100701.00;;;;5031265;28;20206;-67
2022/11/20 10:07:40;;;;;;;3.07;1.90;;;6.60;99.90;6.70;100692.00;;;;5031465;28;20624;-68
2022/11/20 10:10:35;;;;;;;1.10;1.10;;;6.70;99.90;7.00;100693.00;;;;5023172;28;20228;-66
2022/11/20 10:13:33;;;;;;;2.60;2.40;;;6.70;99.90;6.60;100690.00;;;;5022553;28;20705;-72
2022/11/20 10:16:29;;;;;;;3.80;1.53;;;6.60;99.90;7.10;100686.00;;;;5030533;28;20203;-71
2022/11/20 10:19:39;;;;;;;8.43;1.53;;;6.60;99.90;6.90;100669.00;;;;5032610;28;20209;-72
2022/11/20 10:33:53;;;;;;;2.47;0.90;;;6.30;99.90;6.20;100675.00;;;;5070009;28;20595;-73
2022/11/20 10:37:05;;;;;;;4.07;3.67;;;6.40;99.90;6.60;100661.00;;;;5049100;28;20193;-73
2022/11/20 10:39:44;;;;;;;10.40;5.90;;;6.60;99.90;7.20;100645.00;;;;5078443;28;20272;-73
2022/11/20 10:42:47;;;;;;;4.90;3.57;;;6.90;99.90;7.10;100640.00;;;;5050005;28;20213;-73
2022/11/20 10:45:27;;;;;;;9.43;5.30;;;6.90;99.90;7.00;100645.00;;;;5049003;28;20336;-73
2022/11/20 10:48:26;;;;;;;0.40;0.40;;;7.00;99.90;7.10;100597.00;;;;5045230;28;20550;-68
2022/11/20 10:51:29;;;;;;;0.60;0.60;;;7.00;99.90;7.70;100641.00;;;;5081594;28;20186;-70
2022/11/20 10:54:19;;;;;;;17.47;9.50;;;7.20;99.90;7.50;100639.00;;;;5049686;28;20300;-70
2022/11/20 10:57:02;;;;;;;17.13;5.07;;;7.20;99.90;7.40;100598.00;;;;5048109;28;20183;-70
2022/11/20 10:59:49;;;;;;;7.13;2.40;;;7.30;99.90;7.40;100614.00;;;;5043075;28;20175;-70
2022/11/20 11:02:21;;;;;;;0.60;0.60;;;7.30;99.90;7.60;100566.00;;;;5047610;28;20202;-70
2022/11/20 11:04:54;;;;;;;1.40;1.40;;;7.40;99.90;7.60;100586.00;;;;5048410;28;20182;-70
2022/11/20 11:07:27;;;;;;;10.73;4.87;;;7.50;99.90;7.80;100594.00;;;;5035616;28;20183;-70
2022/11/20 11:09:57;;;;;;;1.83;1.70;;;7.60;99.90;7.80;100593.00;;;;5048343;28;20207;-70
2022/11/20 11:12:27;;;;;;;7.60;2.33;;;7.60;99.90;8.00;100589.00;;;;5031753;28;20212;-70
2022/11/20 11:14:56;;;;;;;6.87;5.10;;;7.70;99.90;8.20;100588.00;;;;5032498;28;20636;-70
2022/11/20 11:17:27;;;;;;;2.53;1.40;;;7.80;99.90;8.10;100569.00;;;;5027580;28;20282;-70
2022/11/20 11:20:06;;;;;;;1.60;1.57;;;7.80;99.90;8.50;100571.00;;;;5043539;28;20234;-70
2022/11/20 11:22:54;;;;;;;5.67;5.23;;;8.00;99.90;8.10;100556.00;;;;5065298;28;20191;-70
2022/11/20 11:25:36;;;;;;;2.60;1.90;;;8.00;99.90;8.40;100542.00;;;;5050025;28;20206;-70
2022/11/20 11:28:22;;;;;;;0.70;0.70;;;8.10;99.90;8.40;100539.00;;;;5028555;28;20652;-70
2022/11/20 11:30:50;;;;;;;2.73;2.60;;;8.20;99.90;8.50;100540.00;;;;5060536;28;20199;-70
2022/11/20 11:33:39;;;;;;;1.63;1.53;;;8.30;99.90;8.50;100548.00;;;;5047773;28;20219;-67
2022/11/20 11:36:29;;;;;;;0.50;0.50;;;8.30;99.90;8.60;100538.00;;;;5049331;28;20306;-69
2022/11/20 11:38:55;;;;;;;0.30;0.30;;;8.40;99.90;9.00;100502.00;;;;5058049;28;20192;-69
2022/11/20 11:41:31;;;;;;;1.43;1.00;;;8.50;99.90;8.80;100511.00;;;;5039548;28;20606;-70
2022/11/20 11:46:58;;;;;;;1.43;1.20;;;8.60;99.90;8.70;100489.00;;;;5032459;28;20205;-70
2022/11/20 11:49:24;;;;;;;3.93;2.33;;;8.70;99.90;9.00;100495.00;;;;5034520;28;20889;-70
2022/11/20 11:52:24;;;;;;;6.80;3.27;;;8.80;99.90;8.80;100489.00;;;;5033804;28;20199;-70